ADDS METAR Data INFO
IDs: Format: Raw Decoded Include TAF

Data at: 1921 UTC 19 Jul 2018

K05U 191915Z AUTO 00000KT 10SM CLR 35/M03 A3023 RMK A01
K05U 191855Z AUTO VRB04KT 10SM CLR 35/M02 A3024 RMK A01
K05U 191835Z AUTO 32005KT 10SM CLR 34/M02 A3024 RMK A01
K05U 191815Z AUTO 00000KT 10SM CLR 33/M02 A3025 RMK A01
K05U 191755Z AUTO 02005KT 10SM CLR 33/M03 A3026 RMK A01
K05U 191735Z AUTO VRB04KT 10SM CLR 32/M05 A3026 RMK A01
K05U 191715Z AUTO 00000KT 10SM CLR 31/M05 A3026 RMK A01
K05U 191655Z AUTO 05003KT 10SM CLR 30/M05 A3027 RMK A01
K05U 191635Z AUTO 00000KT 10SM CLR 29/M05 A3027 RMK A01
K05U 191615Z AUTO 00000KT 10SM CLR 27/M04 A3027 RMK A01
K05U 191555Z AUTO 11003KT 10SM CLR 27/M04 A3028 RMK A01
K05U 191535Z AUTO 00000KT 10SM CLR 26/M03 A3028 RMK A01
K05U 191515Z AUTO 00000KT 10SM CLR 24/M05 A3027 RMK A01
K05U 191455Z AUTO 21004KT 10SM CLR 22/M02 A3027 RMK A01
K05U 191435Z AUTO 23004KT 10SM CLR 21/M04 A3027 RMK A01
K05U 191415Z AUTO 23004KT 10SM CLR 18/M04 A3027 RMK A01
K05U 191355Z AUTO 00000KT 10SM CLR 16/M02 A3027 RMK A01
K05U 191335Z AUTO 00000KT 10SM CLR 15/M03 A3026 RMK A01
K05U 191315Z AUTO 00000KT 10SM CLR 13/M03 A3026 RMK A01
K05U 191255Z AUTO 22004KT 10SM CLR 14/M04 A3025 RMK A01
K05U 191235Z AUTO 21007KT 10SM CLR 14/M04 A3025 RMK A01
K05U 191215Z AUTO 21007KT 10SM CLR 15/M04 A3024 RMK A01
K05U 191155Z AUTO 19007KT 10SM CLR 14/M03 A3024 RMK A01
K05U 191135Z AUTO 19008KT 10SM CLR 15/M04 A3023 RMK A01
K05U 191115Z AUTO 17005KT 10SM CLR 14/M02 A3024 RMK A01
K05U 191055Z AUTO 19007KT 10SM CLR 14/M02 A3024 RMK A01
K05U 191035Z AUTO 18005KT 10SM CLR 15/M01 A3024 RMK A01
K05U 191015Z AUTO 17006KT 10SM CLR 15/M02 A3024 RMK A01
K05U 190955Z AUTO 18007KT 10SM CLR 16/M02 A3024 RMK A01
K05U 190935Z AUTO 20006KT 10SM CLR 15/M02 A3024 RMK A01
K05U 190915Z AUTO 17005KT 10SM CLR 15/M02 A3024 RMK A01
K05U 190855Z AUTO 18007KT 10SM CLR 16/M03 A3024 RMK A01
K05U 190835Z AUTO 16007KT 10SM CLR 15/M01 A3024 RMK A01
K05U 190815Z AUTO 18006KT 10SM CLR 16/M03 A3024 RMK A01
K05U 190755Z AUTO 16005KT 10SM CLR 15/M01 A3024 RMK A01
K05U 190735Z AUTO 18004KT 10SM CLR 16/M03 A3024 RMK A01
K05U 190715Z AUTO 18004KT 10SM CLR 15/M02 A3024 RMK A01
K05U 190655Z AUTO 00000KT 10SM CLR 16/M02 A3024 RMK A01
K05U 190635Z AUTO 20005KT 10SM CLR 18/M03 A3024 RMK A01
K05U 190615Z AUTO 15003KT 10SM CLR 16/M02 A3024 RMK A01
K05U 190555Z AUTO 00000KT 10SM CLR 18/M01 A3023 RMK A01
K05U 190535Z AUTO 00000KT 10SM CLR 19/M00 A3024 RMK A01
K05U 190515Z AUTO 19006KT 10SM CLR 23/M06 A3024 RMK A01
K05U 190455Z AUTO 16005KT 10SM CLR 21/M01 A3024 RMK A01
K05U 190435Z AUTO 23005KT 10SM CLR 24/M04 A3023 RMK A01
K05U 190415Z AUTO VRB03KT 10SM CLR 23/M03 A3022 RMK A01
K05U 190355Z AUTO 15005KT 10SM CLR 24/01 A3021 RMK A01
K05U 190335Z AUTO 34005KT 10SM CLR 29/M07 A3020 RMK A01
K05U 190315Z AUTO 32009G14KT 10SM CLR 30/M07 A3019 RMK A01
K05U 190255Z AUTO 31008KT 10SM CLR 31/M05 A3018 RMK A01
K05U 190235Z AUTO 31011G16KT 10SM CLR 33/M04 A3018 RMK A01
K05U 190215Z AUTO 32012G18KT 10SM CLR 34/M03 A3017 RMK A01
K05U 190155Z AUTO 30009G18KT 10SM CLR 35/M03 A3016 RMK A01
K05U 190135Z AUTO 32008G13KT 10SM CLR 36/M02 A3016 RMK A01
K05U 190115Z AUTO 28007G15KT 260V320 10SM CLR 36/M02 A3016 RMK A01
K05U 190055Z AUTO 27013KT 10SM CLR 35/M03 A3016 RMK A01
K05U 190035Z AUTO 28007G15KT 10SM CLR 36/M03 A3016 RMK A01
K05U 190015Z AUTO 24009G16KT 10SM CLR 37/M02 A3017 RMK A01
K05U 182355Z AUTO VRB03KT 10SM CLR 36/M03 A3017 RMK A01
K05U 182335Z AUTO 27010KT 10SM CLR 37/M03 A3018 RMK A01
K05U 182315Z AUTO 23007G15KT 10SM CLR 37/M03 A3018 RMK A01
K05U 182255Z AUTO 27013KT 10SM CLR 37/M03 A3018 RMK A01
K05U 182235Z AUTO 26010G17KT 230V290 10SM CLR 37/M02 A3019 RMK A01
K05U 182215Z AUTO VRB03KT 10SM CLR 37/M04 A3020 RMK A01
K05U 182155Z AUTO 23010G19KT 10SM CLR 38/M04 A3021 RMK A01
K05U 182135Z AUTO 22011G20KT 10SM CLR 37/M03 A3021 RMK A01
K05U 182115Z AUTO 25012G20KT 210V270 10SM CLR 37/M03 A3022 RMK A01
K05U 182055Z AUTO 29007G12KT 250V330 10SM CLR 37/M02 A3023 RMK A01
K05U 182035Z AUTO VRB06KT 10SM CLR 36/M02 A3024 RMK A01
K05U 182015Z AUTO 24012KT 10SM CLR 35/M02 A3024 RMK A01
K05U 181955Z AUTO 25013KT 10SM CLR 35/M02 A3025 RMK A01
K05U 181935Z AUTO 24012KT 10SM CLR 35/M02 A3025 RMK A01
K05U 181915Z AUTO 00000KT 10SM CLR 34/M02 A3027 RMK A01
K05U 181855Z AUTO 10007KT 10SM CLR 34/M02 A3027 RMK A01
K05U 181835Z AUTO 11006KT 10SM CLR 34/M02 A3028 RMK A01
K05U 181815Z AUTO 07005KT 10SM CLR 33/M01 A3028 RMK A01
K05U 181755Z AUTO 09004KT 10SM CLR 32/M00 A3029 RMK A01
K05U 181735Z AUTO VRB04KT 10SM CLR 31/01 A3029 RMK A01
K05U 181715Z AUTO 00000KT 10SM CLR 30/M00 A3030 RMK A01
K05U 181655Z AUTO 00000KT 10SM CLR 29/M00 A3030 RMK A01
K05U 181635Z AUTO 00000KT 10SM CLR 28/M01 A3031 RMK A01
K05U 181615Z AUTO 00000KT 10SM CLR 27/M02 A3031 RMK A01
K05U 181555Z AUTO 00000KT 10SM CLR 26/M01 A3032 RMK A01
K05U 181535Z AUTO 00000KT 10SM CLR 26/M00 A3031 RMK A01
K05U 181515Z AUTO 00000KT 10SM CLR 24/M01 A3031 RMK A01
K05U 181455Z AUTO 21003KT 10SM CLR 22/00 A3031 RMK A01
K05U 181435Z AUTO 22008KT 10SM CLR 20/M01 A3031 RMK A01
K05U 181415Z AUTO 21006KT 10SM CLR 19/00 A3031 RMK A01
K05U 181355Z AUTO 22006KT 10SM CLR 17/01 A3031 RMK A01
K05U 181335Z AUTO 22006KT 10SM CLR 16/01 A3031 RMK A01
K05U 181315Z AUTO 17005KT 10SM CLR 14/03 A3030 RMK A01
K05U 181255Z AUTO 17004KT 10SM CLR 13/02 A3030 RMK A01
K05U 181235Z AUTO 00000KT 10SM CLR 12/03 A3030 RMK A01
K05U 181215Z AUTO VRB03KT 10SM CLR 12/03 A3029 RMK A01
K05U 181155Z AUTO 22007KT 10SM CLR 11/03 A3028 RMK A01
K05U 181135Z AUTO 24004KT 10SM CLR 12/03 A3028 RMK A01
K05U 181115Z AUTO 00000KT 10SM CLR 14/04 A3028 RMK A01
K05U 181055Z AUTO 15005KT 10SM CLR 13/03 A3028 RMK A01
K05U 181035Z AUTO 20004KT 10SM CLR 13/02 A3027 RMK A01
K05U 181015Z AUTO 21005KT 10SM CLR 13/03 A3027 RMK A01
K05U 180955Z AUTO 24005KT 10SM CLR 14/03 A3027 RMK A01
K05U 180935Z AUTO 17006KT 10SM CLR 14/04 A3027 RMK A01
K05U 180915Z AUTO 13006KT 10SM CLR 14/04 A3027 RMK A01
K05U 180855Z AUTO 21003KT 10SM CLR 14/03 A3027 RMK A01
K05U 180835Z AUTO 21006KT 10SM CLR 15/02 A3027 RMK A01
K05U 180815Z AUTO 18005KT 10SM CLR 15/02 A3027 RMK A01
K05U 180755Z AUTO 00000KT 10SM CLR 14/03 A3027 RMK A01
K05U 180735Z AUTO 24003KT 10SM CLR 16/03 A3027 RMK A01